Time;durP1;ratioP1;P1;durP2;ratioP2;P2;SDS_P1;SDS_P2;PMS_P1;PMS_P2;Temp;Humidity;BMP_temperature;BMP_pressure;BME280_temperature;BME280_humidity;BME280_pressure;Samples;Min_cycle;Max_cycle;Signal;HPM_P1;HPM_P2
2024/03/09 00:00:16;;;;;;;35.67;17.13;;;;;;;4.45;100.00;100521.13;6091163;19;20566;-75
2024/03/09 00:02:21;;;;;;;35.85;14.57;;;;;;;4.46;100.00;100522.84;6087799;19;20550;-75
2024/03/09 00:04:27;;;;;;;43.60;16.05;;;;;;;4.48;100.00;100527.13;6092259;19;20760;-74
2024/03/09 00:06:37;;;;;;;32.55;15.77;;;;;;;4.47;100.00;100509.78;6094950;19;20220;-74
2024/03/09 00:08:44;;;;;;;37.40;17.85;;;;;;;4.46;100.00;100513.28;6094194;19;20039;-79
2024/03/09 00:10:52;;;;;;;36.47;15.52;;;;;;;4.39;100.00;100502.16;6088898;19;20014;-74
2024/03/09 00:12:58;;;;;;;32.85;15.70;;;;;;;4.34;100.00;100506.59;6088427;19;20003;-75
2024/03/09 00:15:04;;;;;;;34.60;16.17;;;;;;;4.32;100.00;100508.38;6091920;19;20019;-79
2024/03/09 00:17:09;;;;;;;37.15;17.27;;;;;;;4.33;100.00;100504.03;6091357;19;20484;-79
2024/03/09 00:19:17;;;;;;;26.27;14.68;;;;;;;4.33;100.00;100504.03;6091079;19;20588;-82
2024/03/09 00:21:19;;;;;;;39.75;18.02;;;;;;;4.27;100.00;100512.81;6091589;19;20011;-80
2024/03/09 00:23:26;;;;;;;36.25;16.52;;;;;;;4.34;100.00;100519.59;6091166;19;20011;-80
2024/03/09 00:25:31;;;;;;;28.60;15.27;;;;;;;4.31;100.00;100506.66;6089400;19;20508;-80
2024/03/09 00:27:41;;;;;;;34.30;15.32;;;;;;;4.30;100.00;100497.16;6089215;19;20483;-80
2024/03/09 00:29:46;;;;;;;37.20;17.05;;;;;;;4.23;100.00;100511.16;6089344;19;19999;-80
2024/03/09 00:31:52;;;;;;;28.45;14.65;;;;;;;4.22;100.00;100496.44;6088308;19;20365;-80
2024/03/09 00:33:57;;;;;;;40.33;17.75;;;;;;;4.17;100.00;100501.72;6086979;19;20090;-80
2024/03/09 00:36:02;;;;;;;28.77;13.70;;;;;;;4.16;100.00;100497.44;6087419;19;20027;-75
2024/03/09 00:38:08;;;;;;;31.58;14.25;;;;;;;4.09;100.00;100507.97;6084716;19;20006;-75
2024/03/09 00:40:13;;;;;;;32.78;14.75;;;;;;;4.03;100.00;100502.88;6087680;19;20007;-75
2024/03/09 00:42:21;;;;;;;33.85;16.38;;;;;;;4.03;100.00;100495.06;6085074;19;20538;-75
2024/03/09 00:44:30;;;;;;;33.65;15.55;;;;;;;3.95;100.00;100505.66;6087053;19;20009;-79
2024/03/09 00:46:36;;;;;;;36.30;15.40;;;;;;;3.94;100.00;100496.97;6087119;19;20011;-80
2024/03/09 00:48:43;;;;;;;37.20;15.18;;;;;;;3.97;100.00;100502.09;6088231;19;20023;-79
2024/03/09 00:50:46;;;;;;;33.75;16.90;;;;;;;3.80;100.00;100488.56;6088109;19;20497;-75
2024/03/09 00:52:51;;;;;;;;;;;;;;;3.90;100.00;100492.72;6083746;19;20023;-74
2024/03/09 00:54:57;;;;;;;34.53;16.55;;;;;;;3.86;100.00;100493.66;6090083;19;19967;-74
2024/03/09 00:57:03;;;;;;;32.72;16.65;;;;;;;3.83;100.00;100485.91;6084998;19;20299;-75
2024/03/09 00:59:08;;;;;;;36.95;16.65;;;;;;;3.72;100.00;100480.91;6089604;19;20070;-75
2024/03/09 01:01:17;;;;;;;35.70;17.15;;;;;;;3.71;100.00;100480.94;6090372;19;20006;-75
2024/03/09 01:03:23;;;;;;;35.83;17.17;;;;;;;3.66;100.00;100474.97;6092154;19;20085;-78
2024/03/09 01:05:29;;;;;;;29.60;13.98;;;;;;;3.62;100.00;100476.75;6092827;19;20625;-79
2024/03/09 01:07:34;;;;;;;31.08;16.08;;;;;;;3.65;100.00;100468.06;6090486;19;20014;-75
2024/03/09 01:09:42;;;;;;;35.55;17.08;;;;;;;3.68;100.00;100468.00;6088871;19;20043;-75
2024/03/09 01:11:48;;;;;;;38.30;16.58;;;;;;;3.66;100.00;100461.97;6090851;19;20034;-75
2024/03/09 01:13:54;;;;;;;41.80;17.92;;;;;;;3.60;100.00;100465.53;6090957;19;20007;-75
2024/03/09 01:15:59;;;;;;;35.20;15.25;;;;;;;3.54;100.00;100468.25;6090004;19;20110;-74
2024/03/09 01:18:07;;;;;;;41.63;17.77;;;;;;;3.61;100.00;100466.41;6087642;19;20054;-75
2024/03/09 01:20:14;;;;;;;38.95;16.63;;;;;;;3.50;100.00;100456.19;6087155;19;20006;-79
2024/03/09 01:22:20;;;;;;;44.13;17.08;;;;;;;3.51;100.00;100458.78;6094122;19;20003;-79
2024/03/09 01:24:28;;;;;;;35.47;17.35;;;;;;;3.53;100.00;100456.16;6092973;19;20015;-79
2024/03/09 01:26:30;;;;;;;39.13;17.75;;;;;;;3.47;100.00;100451.91;6091636;19;20030;-80
2024/03/09 01:28:37;;;;;;;32.00;16.77;;;;;;;3.51;100.00;100458.78;6094009;19;20020;-79
2024/03/09 01:30:42;;;;;;;35.22;16.98;;;;;;;3.47;100.00;100451.91;6091560;19;20010;-79
2024/03/09 01:32:49;;;;;;;38.45;15.07;;;;;;;3.43;100.00;100452.00;6090516;19;20010;-79
2024/03/09 01:34:57;;;;;;;40.13;15.95;;;;;;;3.40;100.00;100452.91;6088237;19;20030;-79
2024/03/09 01:37:05;;;;;;;36.47;17.08;;;;;;;3.43;100.00;100444.22;6088836;19;20011;-78
2024/03/09 01:39:10;;;;;;;31.50;14.43;;;;;;;3.35;100.00;100446.94;6087284;19;20007;-75
2024/03/09 01:41:15;;;;;;;34.50;16.58;;;;;;;3.42;100.00;100448.56;6088596;19;20014;-74
2024/03/09 01:43:20;;;;;;;41.60;17.90;;;;;;;3.36;100.00;100440.84;6088656;19;20030;-79
2024/03/09 01:45:28;;;;;;;39.83;17.08;;;;;;;3.35;100.00;100431.34;6089905;19;20015;-79
2024/03/09 01:47:33;;;;;;;32.15;14.82;;;;;;;3.36;100.00;100433.06;6090927;19;20014;-79
2024/03/09 01:49:39;;;;;;;31.63;15.88;;;;;;;3.36;100.00;100430.47;6088058;19;20037;-75
2024/03/09 01:51:48;;;;;;;31.80;16.95;;;;;;;3.31;100.00;100432.28;6088313;19;20368;-74
2024/03/09 01:53:55;;;;;;;37.97;18.08;;;;;;;3.32;100.00;100434.00;6085326;19;20011;-75
2024/03/09 01:56:01;;;;;;;37.67;18.58;;;;;;;3.30;100.00;100428.84;6085313;19;20027;-75
2024/03/09 01:58:08;;;;;;;36.13;14.98;;;;;;;3.25;100.00;100420.25;6087844;19;20103;-79
2024/03/09 02:00:17;;;;;;;35.92;15.68;;;;;;;3.29;100.00;100419.34;6088778;19;20007;-79
2024/03/09 02:02:22;;;;;;;37.30;15.30;;;;;;;3.37;100.00;100414.03;6090421;19;20039;-78
2024/03/09 02:04:28;;;;;;;33.35;16.40;;;;;;;3.37;100.00;100411.41;6088510;19;20093;-79
2024/03/09 02:06:35;;;;;;;37.70;17.13;;;;;;;3.40;100.00;100411.34;6090988;19;20059;-80
2024/03/09 02:08:44;;;;;;;37.72;16.08;;;;;;;3.40;100.00;100403.56;6091559;19;20011;-79
2024/03/09 02:10:49;;;;;;;41.33;15.55;;;;;;;3.42;100.00;100400.94;6090231;19;20038;-79
2024/03/09 02:12:57;;;;;;;42.00;17.02;;;;;;;3.40;100.00;100400.13;6091135;19;20450;-79
2024/03/09 02:15:04;;;;;;;32.72;16.08;;;;;;;3.43;100.00;100400.06;6090238;19;20038;-80
2024/03/09 02:17:07;;;;;;;36.22;17.08;;;;;;;3.39;100.00;100398.38;6084811;19;20017;-78
2024/03/09 02:19:13;;;;;;;39.03;16.88;;;;;;;3.38;100.00;100397.53;6089432;19;20035;-80
2024/03/09 02:21:19;;;;;;;27.98;14.48;;;;;;;3.42;100.00;100394.00;6090150;19;20042;-79
2024/03/09 02:23:31;;;;;;;39.78;17.90;;;;;;;3.43;100.00;100387.06;6089640;19;20014;-80
2024/03/09 02:25:39;;;;;;;32.97;16.08;;;;;;;3.40;100.00;100387.13;6088187;19;20007;-79
2024/03/09 02:27:46;;;;;;;39.03;15.25;;;;;;;3.42;100.00;100382.75;6089000;19;20062;-78
2024/03/09 02:29:52;;;;;;;34.75;15.60;;;;;;;3.47;100.00;100381.75;6088443;19;20344;-78
2024/03/09 02:32:00;;;;;;;44.75;17.88;;;;;;;3.41;100.00;100371.50;6088911;19;20026;-78
2024/03/09 02:34:05;;;;;;;34.60;14.88;;;;;;;3.44;100.00;100376.63;6088603;19;20086;-74
2024/03/09 02:36:10;;;;;;;37.25;17.23;;;;;;;3.44;100.00;100376.63;6087881;19;20353;-74
2024/03/09 02:38:15;;;;;;;33.63;16.40;;;;;;;3.42;100.00;100368.03;6087546;19;20007;-74
2024/03/09 02:40:20;;;;;;;34.80;16.67;;;;;;;3.46;100.00;100366.22;6087961;19;20022;-74
2024/03/09 02:42:28;;;;;;;32.38;14.80;;;;;;;3.51;100.00;100364.41;6085412;19;20014;-74
2024/03/09 02:44:33;;;;;;;35.40;17.58;;;;;;;3.54;100.00;100353.09;6090858;19;20013;-78
2024/03/09 02:46:39;;;;;;;38.95;16.63;;;;;;;3.57;100.00;100350.44;6087264;19;20010;-74
2024/03/09 02:48:46;;;;;;;27.65;14.02;;;;;;;3.59;100.00;100353.88;6088916;19;20010;-80
2024/03/09 02:50:52;;;;;;;37.28;17.92;;;;;;;3.60;100.00;100356.41;6088379;19;20002;-75
2024/03/09 02:52:55;;;;;;;38.65;18.83;;;;;;;3.65;100.00;100356.34;6083990;19;20002;-75
2024/03/09 02:55:01;;;;;;;36.65;16.88;;;;;;;3.72;100.00;100350.13;6085070;19;20054;-75
2024/03/09 02:57:08;;;;;;;40.17;18.70;;;;;;;3.77;100.00;100348.31;6086413;19;20756;-75
2024/03/09 02:59:16;;;;;;;34.83;16.85;;;;;;;3.78;100.00;100344.81;6079172;19;20015;-75
2024/03/09 03:01:18;;;;;;;29.25;14.50;;;;;;;3.81;100.00;100342.13;6086778;19;20031;-74
2024/03/09 03:05:43;;;;;;;34.72;17.85;;;;;;;3.88;100.00;100346.31;6089175;19;20427;-78
2024/03/09 03:07:49;;;;;;;36.22;16.38;;;;;;;3.87;100.00;100355.03;6093493;19;20010;-78
2024/03/09 03:09:57;;;;;;;33.92;17.48;;;;;;;3.90;100.00;100352.34;6091486;19;20138;-79
2024/03/09 03:12:02;;;;;;;41.40;17.40;;;;;;;3.96;100.00;100357.41;6090592;19;20358;-74
2024/03/09 03:14:04;;;;;;;27.02;13.30;;;;;;;4.00;100.00;100357.34;6091010;19;20017;-74
2024/03/09 03:16:17;;;;;;;32.45;16.50;;;;;;;4.00;100.00;100357.34;6092251;19;20003;-79
2024/03/09 03:18:19;;;;;;;30.95;14.18;;;;;;;4.02;100.00;100351.22;6093576;19;20023;-79
2024/03/09 03:20:25;;;;;;;35.75;17.90;;;;;;;4.04;100.00;100346.00;6092595;19;20015;-79
2024/03/09 03:22:32;;;;;;;31.05;15.50;;;;;;;4.07;100.00;100346.78;6094192;19;20007;-79
2024/03/09 03:24:38;;;;;;;45.17;18.35;;;;;;;4.05;100.00;100342.50;6092418;19;20010;-79
2024/03/09 03:26:46;;;;;;;36.92;18.08;;;;;;;4.10;100.00;100344.13;6090287;19;20511;-79
2024/03/09 03:28:52;;;;;;;33.72;15.68;;;;;;;4.06;100.00;100352.03;6091845;19;20006;-79
2024/03/09 03:30:55;;;;;;;41.10;17.80;;;;;;;4.12;100.00;100346.69;6092756;19;20003;-79
2024/03/09 03:33:05;;;;;;;;;;;;;;;4.15;100.00;100339.66;6090248;19;20553;-75
2024/03/09 03:35:11;;;;;;;33.20;15.63;;;;;;;4.08;100.00;100339.84;6090563;19;19914;-74
2024/03/09 03:37:17;;;;;;;34.72;14.80;;;;;;;4.11;100.00;100342.41;6085812;19;20066;-75
2024/03/09 03:39:22;;;;;;;33.15;16.48;;;;;;;4.08;100.00;100329.44;6087623;19;20030;-76
2024/03/09 03:41:31;;;;;;;33.03;14.10;;;;;;;4.12;100.00;100331.94;6093109;19;20010;-76
2024/03/09 03:43:34;;;;;;;34.03;14.90;;;;;;;4.19;100.00;100337.88;6092439;19;20088;-81
2024/03/09 03:45:39;;;;;;;32.35;16.00;;;;;;;4.13;100.00;100328.47;6095639;19;20003;-79
2024/03/09 03:47:41;;;;;;;36.70;19.35;;;;;;;4.15;100.00;100337.06;6093553;19;20287;-74
2024/03/09 03:49:49;;;;;;;36.50;17.30;;;;;;;4.10;100.00;100332.88;6092303;19;20475;-74
2024/03/09 03:51:55;;;;;;;33.00;16.10;;;;;;;4.09;100.00;100325.97;6093550;19;20028;-74
2024/03/09 03:54:00;;;;;;;33.05;14.48;;;;;;;4.11;100.00;100324.19;6088556;19;20003;-76
2024/03/09 03:56:08;;;;;;;40.67;17.95;;;;;;;4.10;100.00;100319.88;6092363;19;20050;-74
2024/03/09 03:58:15;;;;;;;33.60;16.40;;;;;;;4.11;100.00;100319.84;6093373;19;20006;-75
2024/03/09 04:00:20;;;;;;;32.28;16.05;;;;;;;4.14;100.00;100318.91;6090744;19;20018;-75
2024/03/09 04:02:29;;;;;;;32.70;15.27;;;;;;;4.17;100.00;100311.03;6094264;19;20014;-79
2024/03/09 04:04:34;;;;;;;33.78;16.15;;;;;;;4.13;100.00;100318.06;6095802;19;20082;-79
2024/03/09 04:06:44;;;;;;;38.78;17.05;;;;;;;4.12;100.00;100316.34;6095391;19;20017;-75
2024/03/09 04:08:49;;;;;;;37.42;16.27;;;;;;;4.09;100.00;100318.16;6094128;19;20010;-79
2024/03/09 04:10:54;;;;;;;30.25;14.40;;;;;;;4.08;100.00;100319.03;6095548;19;20007;-79
2024/03/09 04:12:57;;;;;;;38.05;16.33;;;;;;;4.09;100.00;100318.16;6092564;19;20006;-79
2024/03/09 04:15:03;;;;;;;43.00;17.67;;;;;;;4.11;100.00;100321.59;6093943;19;20007;-79
2024/03/09 04:17:11;;;;;;;37.60;16.88;;;;;;;4.09;100.00;100316.41;6091863;19;20038;-75
2024/03/09 04:19:16;;;;;;;25.45;13.43;;;;;;;4.06;100.00;100310.44;6089285;19;21018;-75
2024/03/09 04:21:22;;;;;;;33.45;16.00;;;;;;;4.05;100.00;100314.75;6087757;19;20367;-75
2024/03/09 04:23:27;;;;;;;33.45;15.75;;;;;;;4.13;100.00;100306.78;6088418;19;20011;-75
2024/03/09 04:25:35;;;;;;;40.20;16.95;;;;;;;4.12;100.00;100315.50;6088303;19;20006;-74
2024/03/09 04:27:40;;;;;;;33.03;14.90;;;;;;;4.03;100.00;100307.88;6088335;19;20019;-75
2024/03/09 04:29:48;;;;;;;35.67;16.58;;;;;;;4.02;100.00;100300.97;6084925;19;20013;-75
2024/03/09 04:31:52;;;;;;;29.67;15.85;;;;;;;4.05;100.00;100303.50;6088552;19;20042;-75
2024/03/09 04:34:01;;;;;;;33.55;15.40;;;;;;;4.03;100.00;100300.97;6085096;19;20023;-75
2024/03/09 04:36:11;;;;;;;39.95;17.83;;;;;;;4.00;100.00;100294.94;6087938;19;20387;-75
2024/03/09 04:38:16;;;;;;;40.67;17.00;;;;;;;4.02;100.00;100293.19;6087756;19;20074;-74
2024/03/09 04:40:24;;;;;;;31.13;15.63;;;;;;;3.95;100.00;100297.69;6087714;19;20092;-74
2024/03/09 04:42:30;;;;;;;37.03;16.25;;;;;;;3.96;100.00;100297.63;6091993;19;20034;-78
2024/03/09 04:44:33;;;;;;;36.33;17.50;;;;;;;4.03;100.00;100300.06;6092002;19;20021;-79
2024/03/09 04:46:39;;;;;;;34.00;16.83;;;;;;;4.01;100.00;100304.47;6089993;19;20002;-78
2024/03/09 04:48:43;;;;;;;37.15;16.90;;;;;;;4.01;100.00;100291.47;6088713;19;20086;-74
2024/03/09 04:50:49;;;;;;;38.50;17.10;;;;;;;4.03;100.00;100290.56;6089958;19;20415;-76
2024/03/09 04:52:54;;;;;;;32.80;15.88;;;;;;;4.03;100.00;100287.06;6085008;19;20374;-80
2024/03/09 04:54:56;;;;;;;33.72;17.33;;;;;;;4.02;100.00;100288.84;6090532;19;20024;-79
2024/03/09 04:57:04;;;;;;;29.90;15.75;;;;;;;4.05;100.00;100282.72;6091387;19;20023;-80
2024/03/09 04:59:09;;;;;;;40.40;18.55;;;;;;;4.03;100.00;100281.88;6090357;19;20369;-80
2024/03/09 05:01:16;;;;;;;33.10;15.90;;;;;;;4.01;100.00;100286.28;6089723;19;20021;-79
2024/03/09 05:03:23;;;;;;;42.42;18.20;;;;;;;4.02;100.00;100273.22;6080606;19;20593;-75
2024/03/09 05:05:31;;;;;;;36.53;16.83;;;;;;;4.08;100.00;100283.50;6087848;19;20015;-75
2024/03/09 05:07:35;;;;;;;31.77;15.27;;;;;;;4.05;100.00;100269.72;6088369;19;20033;-79
2024/03/09 05:09:41;;;;;;;33.58;16.27;;;;;;;4.11;100.00;100278.25;6090065;19;20002;-75
2024/03/09 05:11:46;;;;;;;35.88;17.20;;;;;;;4.10;100.00;100271.31;6092139;19;20028;-79
2024/03/09 05:13:56;;;;;;;38.10;14.95;;;;;;;4.11;100.00;100272.19;6090326;19;20006;-78
2024/03/09 05:16:02;;;;;;;32.55;17.45;;;;;;;4.13;100.00;100275.59;6090184;19;20762;-79
2024/03/09 05:18:10;;;;;;;35.15;15.68;;;;;;;4.11;100.00;100270.44;6089461;19;20015;-79
2024/03/09 05:20:20;;;;;;;35.97;16.23;;;;;;;4.13;100.00;100262.59;6085995;19;20466;-75
2024/03/09 05:22:26;;;;;;;31.90;15.05;;;;;;;4.11;100.00;100264.38;6088063;19;20300;-75
2024/03/09 05:24:31;;;;;;;31.90;14.73;;;;;;;4.12;100.00;100260.88;6088334;19;20014;-76
2024/03/09 05:26:36;;;;;;;37.38;17.50;;;;;;;4.10;100.00;100263.50;6091840;19;20003;-80
2024/03/09 05:28:41;;;;;;;37.97;18.08;;;;;;;4.13;100.00;100263.47;6089235;19;20006;-74
2024/03/09 05:30:50;;;;;;;38.63;17.38;;;;;;;4.13;100.00;100262.59;6085856;19;20031;-75
2024/03/09 05:33:06;;;;;;;33.00;16.80;;;;;;;4.10;100.00;100254.84;6086929;19;20007;-74
2024/03/09 05:35:14;;;;;;;36.10;15.77;;;;;;;4.14;100.00;100257.34;6093276;19;20010;-78
2024/03/09 05:37:23;;;;;;;35.33;16.88;;;;;;;4.09;100.00;100259.22;6095141;19;20367;-80
2024/03/09 05:39:29;;;;;;;35.78;17.30;;;;;;;4.13;100.00;100249.59;6087193;19;20034;-78
2024/03/09 05:41:37;;;;;;;31.08;16.10;;;;;;;4.11;100.00;100254.00;6089351;19;20052;-79
2024/03/09 05:43:40;;;;;;;44.65;17.08;;;;;;;4.07;100.00;100257.53;6089527;19;20795;-79
2024/03/09 05:45:45;;;;;;;29.98;15.52;;;;;;;4.09;100.00;100251.41;6090798;19;20013;-75
2024/03/09 05:47:55;;;;;;;34.85;15.13;;;;;;;4.09;100.00;100258.34;6088883;19;20042;-79
2024/03/09 05:49:58;;;;;;;34.20;17.35;;;;;;;4.11;100.00;100252.25;6089658;19;20010;-74
2024/03/09 05:52:03;;;;;;;35.95;13.85;;;;;;;4.12;100.00;100259.13;6087730;19;20465;-75
2024/03/09 05:54:09;;;;;;;37.72;18.13;;;;;;;4.11;100.00;100257.44;6089653;19;20681;-78
2024/03/09 05:56:14;;;;;;;35.22;15.77;;;;;;;4.04;100.00;100257.63;6091832;19;20009;-79
2024/03/09 05:58:22;;;;;;;36.80;16.77;;;;;;;4.06;100.00;100255.84;6087067;19;20018;-74
2024/03/09 06:00:27;;;;;;;29.55;15.93;;;;;;;4.07;100.00;100249.72;6087233;19;20010;-74
2024/03/09 06:02:39;;;;;;;37.92;18.05;;;;;;;4.11;100.00;100257.44;6089585;19;20019;-75
2024/03/09 06:04:51;;;;;;;34.63;17.08;;;;;;;4.15;100.00;100251.25;6090096;19;20017;-79
2024/03/09 06:06:56;;;;;;;36.45;15.88;;;;;;;4.14;100.00;100251.31;6090569;19;20017;-74
2024/03/09 06:09:01;;;;;;;32.58;15.02;;;;;;;4.11;100.00;100248.78;6088545;19;20015;-78
2024/03/09 06:11:06;;;;;;;30.33;14.27;;;;;;;4.17;100.00;100249.47;6090521;19;20013;-80
2024/03/09 06:13:12;;;;;;;39.17;18.30;;;;;;;4.15;100.00;100253.00;6089560;19;20514;-77
2024/03/09 06:15:19;;;;;;;32.15;16.05;;;;;;;4.13;100.00;100253.06;6088915;19;20030;-78
2024/03/09 06:17:25;;;;;;;33.88;16.27;;;;;;;4.13;100.00;100246.97;6089030;19;20003;-79
2024/03/09 06:19:30;;;;;;;34.00;17.67;;;;;;;4.14;100.00;100246.09;6090609;19;20046;-78
2024/03/09 06:21:38;;;;;;;34.35;16.55;;;;;;;4.17;100.00;100243.44;6084155;19;20270;-75
2024/03/09 06:23:44;;;;;;;32.08;15.88;;;;;;;4.10;100.00;100250.50;6088696;19;20372;-78
2024/03/09 06:25:49;;;;;;;30.40;13.85;;;;;;;4.19;100.00;100259.84;6087259;19;20018;-74
2024/03/09 06:27:53;;;;;;;32.53;15.93;;;;;;;4.21;100.00;100250.25;6085337;19;20824;-79
2024/03/09 06:29:59;;;;;;;40.15;18.23;;;;;;;4.16;100.00;100257.31;6086530;19;20018;-74
2024/03/09 06:32:05;;;;;;;31.48;14.90;;;;;;;4.19;100.00;100249.47;6083907;19;20027;-78
2024/03/09 06:34:10;;;;;;;38.60;15.73;;;;;;;4.18;100.00;100247.72;6088804;19;20053;-79
2024/03/09 06:36:15;;;;;;;35.00;15.95;;;;;;;4.15;100.00;100250.41;6089541;19;20471;-79
2024/03/09 06:38:23;;;;;;;36.75;17.48;;;;;;;4.13;100.00;100246.97;6087530;19;20029;-79
2024/03/09 06:40:26;;;;;;;38.83;16.27;;;;;;;4.17;100.00;100254.69;6088659;19;20023;-79
2024/03/09 06:42:31;;;;;;;;;;;;;;;4.20;100.00;100253.75;6090643;19;20021;-74
2024/03/09 06:44:36;;;;;;;29.52;13.88;;;;;;;4.22;100.00;100248.53;6087658;19;19915;-74
2024/03/09 06:46:43;;;;;;;34.10;15.23;;;;;;;4.22;100.00;100251.97;6087794;19;20006;-75
2024/03/09 06:48:51;;;;;;;28.13;14.00;;;;;;;4.25;100.00;100249.31;6089166;19;20051;-79
2024/03/09 06:50:58;;;;;;;30.60;15.75;;;;;;;4.26;100.00;100251.00;6092106;19;20015;-78
2024/03/09 06:53:04;;;;;;;29.75;13.82;;;;;;;4.25;100.00;100253.66;6086649;19;20051;-75
2024/03/09 06:55:10;;;;;;;34.13;15.50;;;;;;;4.26;100.00;100252.75;6088048;19;20514;-74
2024/03/09 06:57:15;;;;;;;41.75;15.35;;;;;;;4.24;100.00;100252.81;6088581;19;21212;-75
2024/03/09 06:59:21;;;;;;;32.63;15.50;;;;;;;4.28;100.00;100261.38;6089133;19;20042;-75
2024/03/09 07:01:31;;;;;;;36.38;16.85;;;;;;;4.28;100.00;100257.03;6084622;19;20446;-74
2024/03/09 07:03:38;;;;;;;34.72;15.73;;;;;;;4.31;100.00;100254.34;6086429;19;20011;-74
2024/03/09 07:05:43;;;;;;;37.13;18.50;;;;;;;4.34;100.00;100254.25;6086980;19;20030;-75
2024/03/09 07:07:50;;;;;;;38.85;18.88;;;;;;;4.35;100.00;100247.34;6077447;19;20372;-74
2024/03/09 07:09:53;;;;;;;34.67;15.00;;;;;;;4.28;100.00;100256.19;6083547;19;20007;-74
2024/03/09 07:12:00;;;;;;;;;;;;;;;4.32;100.00;100261.28;6086649;19;20010;-73
2024/03/09 07:14:05;;;;;;;27.92;14.48;;;;;;;4.32;100.00;100247.41;6085753;19;19911;-74
2024/03/09 07:16:10;;;;;;;30.95;15.65;;;;;;;4.30;100.00;100247.44;6087531;19;20000;-74
2024/03/09 07:18:16;;;;;;;30.80;16.10;;;;;;;4.34;100.00;100248.22;6085823;19;20018;-73
2024/03/09 07:20:23;;;;;;;31.17;16.25;;;;;;;4.38;100.00;100255.91;6084090;19;20735;-78
2024/03/09 07:22:29;;;;;;;24.45;14.68;;;;;;;4.38;100.00;100250.72;6087451;19;20018;-77
2024/03/09 07:24:36;;;;;;;33.58;16.80;;;;;;;4.42;100.00;100250.63;6089094;19;20011;-77
2024/03/09 07:26:41;;;;;;;32.72;15.77;;;;;;;4.44;100.00;100248.84;6084231;19;20010;-78
2024/03/09 07:28:49;;;;;;;34.08;15.35;;;;;;;4.47;100.00;100256.56;6085448;19;20041;-77
2024/03/09 07:30:54;;;;;;;37.33;14.75;;;;;;;4.51;100.00;100255.63;6084483;19;20680;-78
2024/03/09 07:32:56;;;;;;;35.15;17.67;;;;;;;4.52;100.00;100252.13;6083461;19;20006;-74
2024/03/09 07:35:06;;;;;;;41.65;17.10;;;;;;;4.52;100.00;100255.56;6080766;19;20494;-74
2024/03/09 07:37:11;;;;;;;32.70;14.40;;;;;;;4.58;100.00;100246.75;6084233;19;20010;-77
2024/03/09 07:39:16;;;;;;;31.48;17.08;;;;;;;4.59;100.00;100240.66;6083778;19;20011;-78
2024/03/09 07:41:22;;;;;;;30.88;15.20;;;;;;;4.61;100.00;100254.50;6083801;19;20006;-74
2024/03/09 07:43:24;;;;;;;31.73;14.68;;;;;;;4.65;100.00;100244.84;6083547;19;20179;-75
2024/03/09 07:45:33;;;;;;;34.70;18.33;;;;;;;4.72;100.00;100254.22;6084593;19;20477;-73
2024/03/09 07:47:36;;;;;;;29.13;13.95;;;;;;;4.77;100.00;100258.41;6083072;19;20007;-73
2024/03/09 07:49:41;;;;;;;31.35;13.77;;;;;;;4.84;100.00;100259.09;6082116;19;20002;-74
2024/03/09 07:51:50;;;;;;;27.35;14.75;;;;;;;4.88;100.00;100242.50;6079597;19;20046;-74
2024/03/09 07:53:56;;;;;;;36.72;15.40;;;;;;;4.93;100.00;100231.97;6090172;19;20015;-77
2024/03/09 07:56:02;;;;;;;33.75;15.82;;;;;;;5.10;100.00;100245.38;6091552;19;20192;-80
2024/03/09 07:58:10;;;;;;;28.75;15.48;;;;;;;5.24;100.00;100245.00;6094051;19;20434;-80
2024/03/09 08:00:33;;;;;;;29.73;13.40;;;;;;;5.32;100.00;100249.97;6093910;19;20743;-77
2024/03/09 08:02:39;;;;;;;29.67;16.20;;;;;;;5.40;100.00;100240.22;6090455;19;20022;-78
2024/03/09 08:04:44;;;;;;;27.95;14.52;;;;;;;5.44;100.00;100240.06;6091827;19;20573;-74
2024/03/09 08:06:51;;;;;;;30.58;14.65;;;;;;;5.45;100.00;100243.50;6088144;19;20042;-74
2024/03/09 08:08:58;;;;;;;37.05;16.92;;;;;;;5.48;100.00;100238.25;6090766;19;20095;-76
2024/03/09 08:11:04;;;;;;;33.08;16.30;;;;;;;5.69;100.00;100237.59;6090907;19;20258;-75
2024/03/09 08:13:10;;;;;;;33.22;15.07;;;;;;;5.94;100.00;100235.13;6090106;19;20018;-79
2024/03/09 08:15:16;;;;;;;32.00;14.73;;;;;;;6.08;100.00;100233.81;6090956;19;20014;-78
2024/03/09 08:17:24;;;;;;;26.00;14.32;;;;;;;6.08;100.00;100228.59;6092498;19;21552;-78
2024/03/09 08:19:31;;;;;;;30.33;15.52;;;;;;;6.31;100.00;100230.50;6092532;19;20013;-80
2024/03/09 08:21:37;;;;;;;29.52;12.73;;;;;;;6.50;100.00;100231.59;6094303;19;20020;-79
2024/03/09 08:23:47;;;;;;;32.20;15.38;;;;;;;6.86;100.00;100235.59;6092311;19;20478;-75
2024/03/09 08:25:52;;;;;;;28.33;15.30;;;;;;;7.15;100.00;100222.34;6089185;19;20006;-75
2024/03/09 08:27:58;;;;;;;27.75;12.98;;;;;;;7.31;100.00;100227.88;6091357;19;20061;-74
2024/03/09 08:30:05;;;;;;;29.50;15.43;;;;;;;7.33;100.00;100215.59;6090896;19;20007;-79
2024/03/09 08:32:11;;;;;;;31.35;14.73;;;;;;;7.44;100.00;100208.22;6088007;19;20025;-79
2024/03/09 08:34:19;;;;;;;33.55;15.55;;;;;;;7.41;100.00;100218.78;6089707;19;20011;-80
2024/03/09 08:36:26;;;;;;;28.38;14.82;;;;;;;7.41;100.00;100202.25;6090080;19;20711;-76
2024/03/09 08:38:29;;;;;;;29.40;15.18;;;;;;;7.50;100.00;100204.50;6090456;19;20020;-77
2024/03/09 08:40:34;;;;;;;37.88;16.48;;;;;;;7.60;100.00;100210.25;6090330;19;20010;-76
2024/03/09 08:42:40;;;;;;;30.50;15.98;;;;;;;7.80;100.00;100215.56;6085450;19;20621;-78
2024/03/09 08:44:45;;;;;;;35.13;16.20;;;;;;;7.87;100.00;100210.94;6090486;19;20017;-76
2024/03/09 08:46:48;;;;;;;25.33;12.68;;;;;;;7.58;100.00;100214.69;6088661;19;20007;-75
2024/03/09 08:48:53;;;;;;;29.80;13.65;;;;;;;7.26;100.00;100206.28;6089115;19;20090;-76
2024/03/09 08:51:01;;;;;;;31.83;15.07;;;;;;;7.17;100.00;100204.03;6090219;19;20007;-76
2024/03/09 08:53:10;;;;;;;31.42;15.52;;;;;;;7.22;100.00;100196.88;6086303;19;20022;-75
2024/03/09 08:55:18;;;;;;;34.00;14.35;;;;;;;7.18;100.00;100195.25;6089985;19;20018;-78
2024/03/09 08:57:24;;;;;;;33.90;15.43;;;;;;;7.56;100.00;100193.00;6085612;19;20010;-77
2024/03/09 08:59:29;;;;;;;33.63;13.80;;;;;;;8.25;100.00;100191.09;6089271;19;20090;-80
2024/03/09 09:01:35;;;;;;;32.97;14.90;;;;;;;8.51;100.00;100176.09;6090788;19;20509;-77
2024/03/09 09:03:38;;;;;;;34.03;16.63;;;;;;;8.56;100.00;100174.13;6085399;19;20458;-81
2024/03/09 09:05:43;;;;;;;30.80;13.18;;;;;;;8.55;100.00;100177.63;6089095;19;20042;-77
2024/03/09 09:07:53;;;;;;;33.30;14.57;;;;;;;8.55;100.00;100181.09;6089056;19;20034;-80
2024/03/09 09:09:59;;;;;;;29.85;13.85;;;;;;;8.70;100.00;100186.63;6090668;19;20339;-76
2024/03/09 09:12:02;;;;;;;35.20;15.18;;;;;;;8.69;100.00;100191.00;6089870;19;20438;-76
2024/03/09 09:14:08;;;;;;;31.98;14.48;;;;;;;8.71;100.00;100194.41;6087016;19;20377;-78
2024/03/09 09:16:14;;;;;;;32.25;13.45;;;;;;;8.75;100.00;100195.97;6089751;19;20010;-79
2024/03/09 09:18:20;;;;;;;34.17;15.85;;;;;;;8.71;100.00;100204.88;6087515;19;20387;-76
2024/03/09 09:20:27;;;;;;;29.42;13.27;;;;;;;8.84;100.00;100199.97;6088087;19;20026;-74
2024/03/09 09:22:32;;;;;;;24.13;13.25;;;;;;;8.76;100.00;100192.44;6087630;19;20018;-75
2024/03/09 09:24:40;;;;;;;30.98;13.10;;;;;;;8.49;100.00;100191.84;6088763;19;20015;-76
2024/03/09 09:26:45;;;;;;;35.10;15.15;;;;;;;8.81;100.00;100186.16;6090415;19;20509;-79
2024/03/09 09:28:54;;;;;;;28.00;14.35;;;;;;;9.03;100.00;100176.44;6089974;19;20483;-79
2024/03/09 09:30:59;;;;;;;31.95;15.40;;;;;;;9.21;100.00;100172.97;6089940;19;20041;-75
2024/03/09 09:33:06;;;;;;;33.90;16.02;;;;;;;9.50;100.00;100169.91;6086820;19;20104;-74
2024/03/09 09:35:11;;;;;;;34.22;14.10;;;;;;;9.47;100.00;100176.16;6088420;19;20304;-75